Time;durP1;ratioP1;P1;durP2;ratioP2;P2;SDS_P1;SDS_P2;PMS_P1;PMS_P2;Temp;Humidity;BMP_temperature;BMP_pressure;BME280_temperature;BME280_humidity;BME280_pressure;Samples;Min_cycle;Max_cycle;Signal;HPM_P1;HPM_P2
2023/12/24 00:02:16;;;;;;;2.00;0.87;;;;;;;;;;5088551;28;20228;-77
2023/12/24 00:04:42;;;;;;;1.23;0.80;;;;;;;;;;5096363;28;20251;-78
2023/12/24 00:07:08;;;;;;;0.77;0.70;;;;;;;;;;5087475;28;20222;-79
2023/12/24 00:09:34;;;;;;;1.40;0.97;;;;;;;;;;5083251;28;20274;-79
2023/12/24 00:12:00;;;;;;;1.10;0.83;;;;;;;;;;5087552;28;20278;-79
2023/12/24 00:14:26;;;;;;;1.23;0.90;;;;;;;;;;5080655;28;20231;-79
2023/12/24 00:16:52;;;;;;;1.87;0.80;;;;;;;;;;5088318;28;20208;-79
2023/12/24 00:19:18;;;;;;;1.00;0.90;;;;;;;;;;5090167;28;20288;-79
2023/12/24 00:21:44;;;;;;;1.70;0.80;;;;;;;;;;5079188;28;20706;-79
2023/12/24 00:24:10;;;;;;;2.57;0.93;;;;;;;;;;5074997;28;20238;-78
2023/12/24 00:26:36;;;;;;;1.00;0.93;;;;;;;;;;5093897;28;20183;-78
2023/12/24 00:29:03;;;;;;;0.93;0.87;;;;;;;;;;5091398;28;20232;-79
2023/12/24 00:31:29;;;;;;;1.40;0.87;;;;;;;;;;5097328;28;20225;-80
2023/12/24 00:33:55;;;;;;;1.40;1.00;;;;;;;;;;5087520;28;20199;-79
2023/12/24 00:36:21;;;;;;;1.57;0.93;;;;;;;;;;5085013;28;20299;-79
2023/12/24 00:38:49;;;;;;;1.13;0.87;;;;;;;;;;5087296;28;20229;-79
2023/12/24 00:41:16;;;;;;;1.93;0.93;;;;;;;;;;5085447;28;20173;-79
2023/12/24 00:43:42;;;;;;;1.17;0.70;;;;;;;;;;5086618;28;20676;-79
2023/12/24 00:46:08;;;;;;;1.20;1.10;;;;;;;;;;5083640;28;20202;-79
2023/12/24 00:48:34;;;;;;;1.33;1.10;;;;;;;;;;5061876;28;20229;-79
2023/12/24 00:51:04;;;;;;;1.37;1.20;;;;;;;;;;5068801;28;20605;-79
2023/12/24 00:53:30;;;;;;;0.90;0.77;;;;;;;;;;5084137;28;20224;-80
2023/12/24 00:55:57;;;;;;;1.90;1.00;;;;;;;;;;5086178;28;20202;-79
2023/12/24 00:58:23;;;;;;;1.43;1.07;;;;;;;;;;5079362;28;20795;-78
2023/12/24 01:00:49;;;;;;;1.40;1.30;;;;;;;;;;5071888;28;20206;-78
2023/12/24 01:03:15;;;;;;;1.10;1.00;;;;;;;;;;5083040;28;20625;-78
2023/12/24 01:05:42;;;;;;;2.20;1.40;;;;;;;;;;5081278;28;20212;-79
2023/12/24 01:08:08;;;;;;;2.20;1.50;;;;;;;;;;5066317;28;20196;-78
2023/12/24 01:10:34;;;;;;;1.93;1.30;;;;;;;;;;5085276;28;20221;-79
2023/12/24 01:13:00;;;;;;;2.37;1.50;;;;;;;;;;5084354;28;20297;-80
2023/12/24 01:15:26;;;;;;;2.43;1.43;;;;;;;;;;5083917;28;20237;-79
2023/12/24 01:17:52;;;;;;;2.20;1.50;;;;;;;;;;5089601;28;20288;-79
2023/12/24 01:20:21;;;;;;;1.90;1.37;;;;;;;;;;5082432;28;20580;-79
2023/12/24 01:22:47;;;;;;;1.97;1.43;;;;;;;;;;5083132;28;20641;-78
2023/12/24 01:25:13;;;;;;;2.20;1.90;;;;;;;;;;5085912;28;20202;-78
2023/12/24 01:27:39;;;;;;;13.73;5.73;;;;;;;;;;5083491;28;20244;-78
2023/12/24 01:30:06;;;;;;;2.40;1.47;;;;;;;;;;5084587;28;20209;-78
2023/12/24 01:32:32;;;;;;;2.13;1.33;;;;;;;;;;5089424;28;20170;-78
2023/12/24 01:34:58;;;;;;;2.47;1.70;;;;;;;;;;5095737;28;20201;-79
2023/12/24 01:37:24;;;;;;;1.63;1.30;;;;;;;;;;5100531;28;20231;-79
2023/12/24 01:39:50;;;;;;;2.60;1.73;;;;;;;;;;5075920;28;20284;-77
2023/12/24 01:42:16;;;;;;;2.00;1.50;;;;;;;;;;5091825;28;20247;-79
2023/12/24 01:44:42;;;;;;;2.73;1.90;;;;;;;;;;5095242;28;20183;-79
2023/12/24 01:47:08;;;;;;;2.03;1.60;;;;;;;;;;5102695;28;20203;-79
2023/12/24 01:49:35;;;;;;;2.37;1.67;;;;;;;;;;5100590;28;20236;-80
2023/12/24 01:52:01;;;;;;;3.13;1.93;;;;;;;;;;5095226;28;20213;-79
2023/12/24 01:54:28;;;;;;;1.60;1.50;;;;;;;;;;5083406;28;20282;-79
2023/12/24 01:56:54;;;;;;;3.27;2.27;;;;;;;;;;5085681;28;20281;-80
2023/12/24 01:59:20;;;;;;;3.33;2.33;;;;;;;;;;5082014;28;20174;-79
2023/12/24 02:01:47;;;;;;;2.27;1.50;;;;;;;;;;5079413;28;20218;-79
2023/12/24 02:04:13;;;;;;;4.53;1.97;;;;;;;;;;5090696;28;20207;-79
2023/12/24 02:06:39;;;;;;;3.60;2.73;;;;;;;;;;5081113;28;20213;-79
2023/12/24 02:09:05;;;;;;;3.87;2.23;;;;;;;;;;5085085;28;20295;-80
2023/12/24 02:11:31;;;;;;;4.13;2.13;;;;;;;;;;5086260;28;20241;-79
2023/12/24 02:13:57;;;;;;;4.73;2.40;;;;;;;;;;5082302;28;20274;-79
2023/12/24 02:16:25;;;;;;;2.33;1.97;;;;;;;;;;5082656;28;20226;-79
2023/12/24 02:18:51;;;;;;;4.00;2.37;;;;;;;;;;5082668;28;20215;-79
2023/12/24 02:21:17;;;;;;;3.10;1.90;;;;;;;;;;5084546;28;20296;-79
2023/12/24 02:23:43;;;;;;;3.70;2.13;;;;;;;;;;5083456;28;20175;-79
2023/12/24 02:26:18;;;;;;;3.27;1.83;;;;;;;;;;5078846;28;20220;-79
2023/12/24 02:28:45;;;;;;;3.30;1.67;;;;;;;;;;5081852;28;20210;-79
2023/12/24 02:31:11;;;;;;;2.43;1.90;;;;;;;;;;5082251;28;20411;-79
2023/12/24 02:33:41;;;;;;;5.17;2.03;;;;;;;;;;5068927;28;20228;-79
2023/12/24 02:36:11;;;;;;;3.27;1.90;;;;;;;;;;5084844;28;20618;-79
2023/12/24 02:38:37;;;;;;;2.60;1.50;;;;;;;;;;5083068;28;20217;-79
2023/12/24 02:41:04;;;;;;;2.77;1.90;;;;;;;;;;5092884;28;20273;-79
2023/12/24 02:43:30;;;;;;;2.17;1.63;;;;;;;;;;5067696;28;20211;-79
2023/12/24 02:45:56;;;;;;;2.23;1.67;;;;;;;;;;5086984;28;20210;-79
2023/12/24 02:48:22;;;;;;;3.50;1.80;;;;;;;;;;5086546;28;20530;-79
2023/12/24 02:50:48;;;;;;;2.30;1.70;;;;;;;;;;5081773;28;20219;-79
2023/12/24 02:53:14;;;;;;;2.57;1.50;;;;;;;;;;5082317;28;20675;-79
2023/12/24 02:55:40;;;;;;;2.80;1.60;;;;;;;;;;5083824;28;20206;-79
2023/12/24 02:58:06;;;;;;;4.13;1.73;;;;;;;;;;5083256;28;20210;-79
2023/12/24 03:00:32;;;;;;;2.57;1.63;;;;;;;;;;5065167;28;20263;-79
2023/12/24 03:02:59;;;;;;;3.57;2.07;;;;;;;;;;5082780;28;20205;-78
2023/12/24 03:05:25;;;;;;;3.63;1.90;;;;;;;;;;5086573;28;20538;-79
2023/12/24 03:07:51;;;;;;;5.20;2.13;;;;;;;;;;5084083;28;20703;-79
2023/12/24 03:10:17;;;;;;;3.73;1.93;;;;;;;;;;5084913;28;20677;-79
2023/12/24 03:12:43;;;;;;;2.33;1.27;;;;;;;;;;5083339;28;20224;-79
2023/12/24 03:15:10;;;;;;;3.20;1.60;;;;;;;;;;5085290;28;20222;-79
2023/12/24 03:17:36;;;;;;;2.90;2.00;;;;;;;;;;5083393;28;20206;-79
2023/12/24 03:20:03;;;;;;;2.17;1.30;;;;;;;;;;5086529;28;20239;-79
2023/12/24 03:22:29;;;;;;;3.33;2.00;;;;;;;;;;5085791;28;20211;-79
2023/12/24 03:24:55;;;;;;;2.90;2.10;;;;;;;;;;5081215;28;20741;-79
2023/12/24 03:27:21;;;;;;;2.13;1.50;;;;;;;;;;5084856;28;20211;-79
2023/12/24 03:29:47;;;;;;;2.10;1.60;;;;;;;;;;5084465;28;20184;-79
2023/12/24 03:32:13;;;;;;;3.00;1.53;;;;;;;;;;5088714;28;20174;-79
2023/12/24 03:34:40;;;;;;;2.40;1.60;;;;;;;;;;5084725;28;20740;-78
2023/12/24 03:37:06;;;;;;;2.80;1.40;;;;;;;;;;5085859;28;20220;-79
2023/12/24 03:39:32;;;;;;;1.13;0.90;;;;;;;;;;5086355;28;20233;-79
2023/12/24 03:41:58;;;;;;;1.63;1.13;;;;;;;;;;5083486;28;20210;-79
2023/12/24 03:44:24;;;;;;;2.70;1.23;;;;;;;;;;5084990;28;20534;-80
2023/12/24 03:46:50;;;;;;;1.60;1.13;;;;;;;;;;5087797;28;20218;-80
2023/12/24 03:49:16;;;;;;;2.40;1.20;;;;;;;;;;5080005;28;20211;-79
2023/12/24 03:51:42;;;;;;;1.53;1.00;;;;;;;;;;5061832;28;20216;-79
2023/12/24 03:54:08;;;;;;;3.13;1.40;;;;;;;;;;5086592;28;20206;-79
2023/12/24 03:56:35;;;;;;;1.93;1.23;;;;;;;;;;5084880;28;20185;-79
2023/12/24 03:59:01;;;;;;;4.60;1.07;;;;;;;;;;5079676;28;20650;-80
2023/12/24 04:01:27;;;;;;;1.23;1.00;;;;;;;;;;5082536;28;20236;-79
2023/12/24 04:03:53;;;;;;;1.40;1.30;;;;;;;;;;5080794;28;20211;-79
2023/12/24 04:06:19;;;;;;;2.37;1.40;;;;;;;;;;5077620;28;20214;-79
2023/12/24 04:08:45;;;;;;;2.37;1.80;;;;;;;;;;5085008;28;20216;-79
2023/12/24 04:11:17;;;;;;;2.23;1.50;;;;;;;;;;5081862;28;20674;-79
2023/12/24 04:13:44;;;;;;;1.10;1.00;;;;;;;;;;5082055;28;20221;-79
2023/12/24 04:16:10;;;;;;;1.83;1.10;;;;;;;;;;5080242;28;20220;-78
2023/12/24 04:18:36;;;;;;;2.00;1.30;;;;;;;;;;5080230;28;20315;-79
2023/12/24 04:21:02;;;;;;;2.17;1.23;;;;;;;;;;5078493;28;20204;-79
2023/12/24 04:23:29;;;;;;;1.57;1.07;;;;;;;;;;5081005;28;20212;-79
2023/12/24 04:25:55;;;;;;;1.67;1.33;;;;;;;;;;5079353;28;20182;-79
2023/12/24 04:28:20;;;;;;;2.07;1.10;;;;;;;;;;5083137;28;20207;-79
2023/12/24 04:30:47;;;;;;;3.40;1.20;;;;;;;;;;5079283;28;20334;-79
2023/12/24 04:33:13;;;;;;;1.57;1.47;;;;;;;;;;5085160;28;20268;-79
2023/12/24 04:35:39;;;;;;;1.00;0.90;;;;;;;;;;5079796;28;20226;-76
2023/12/24 04:38:05;;;;;;;1.30;0.93;;;;;;;;;;5078774;28;20640;-79
2023/12/24 04:40:31;;;;;;;1.67;1.10;;;;;;;;;;5065943;28;20208;-80
2023/12/24 04:42:57;;;;;;;2.67;0.83;;;;;;;;;;5060290;28;20216;-79
2023/12/24 04:45:23;;;;;;;1.10;0.87;;;;;;;;;;5065984;28;20220;-79
2023/12/24 04:47:49;;;;;;;0.93;0.77;;;;;;;;;;5082429;28;20213;-79
2023/12/24 04:50:15;;;;;;;0.60;0.60;;;;;;;;;;5076654;28;20223;-79
2023/12/24 04:52:41;;;;;;;1.03;0.93;;;;;;;;;;5083135;28;20206;-79
2023/12/24 04:55:08;;;;;;;1.33;0.67;;;;;;;;;;5061107;28;20223;-79
2023/12/24 04:57:34;;;;;;;0.77;0.70;;;;;;;;;;5082708;28;20210;-79
2023/12/24 05:00:00;;;;;;;0.90;0.90;;;;;;;;;;5100680;28;20289;-79
2023/12/24 05:02:26;;;;;;;0.80;0.70;;;;;;;;;;5097240;28;20221;-79
2023/12/24 05:04:54;;;;;;;0.83;0.70;;;;;;;;;;5085211;28;20214;-79
2023/12/24 05:07:20;;;;;;;0.70;0.70;;;;;;;;;;5083744;28;20209;-79
2023/12/24 05:09:46;;;;;;;0.83;0.83;;;;;;;;;;5081686;28;20214;-79
2023/12/24 05:12:12;;;;;;;1.00;0.80;;;;;;;;;;5081803;28;20203;-79
2023/12/24 05:14:38;;;;;;;1.00;0.80;;;;;;;;;;5083726;28;20218;-79
2023/12/24 05:17:04;;;;;;;0.90;0.70;;;;;;;;;;5081145;28;20198;-78
2023/12/24 05:19:30;;;;;;;1.23;0.97;;;;;;;;;;5083780;28;20203;-80
2023/12/24 05:21:57;;;;;;;1.30;1.20;;;;;;;;;;5076839;28;20219;-79
2023/12/24 05:24:23;;;;;;;1.57;1.20;;;;;;;;;;5079857;28;20708;-79
2023/12/24 05:26:49;;;;;;;1.10;1.00;;;;;;;;;;5085465;28;20623;-79
2023/12/24 05:29:15;;;;;;;1.80;1.60;;;;;;;;;;5082298;28;20174;-79
2023/12/24 05:31:42;;;;;;;1.37;1.20;;;;;;;;;;5087510;28;20207;-79
2023/12/24 05:34:08;;;;;;;1.50;1.40;;;;;;;;;;5094682;28;20241;-77
2023/12/24 05:36:35;;;;;;;1.27;1.10;;;;;;;;;;5098260;28;20268;-79
2023/12/24 05:39:01;;;;;;;2.03;1.50;;;;;;;;;;5099869;28;20231;-79
2023/12/24 05:41:28;;;;;;;2.00;1.60;;;;;;;;;;5101711;28;20190;-79
2023/12/24 05:43:54;;;;;;;1.90;1.60;;;;;;;;;;5096874;28;20185;-78
2023/12/24 05:46:22;;;;;;;1.40;1.30;;;;;;;;;;5079585;28;20199;-78
2023/12/24 05:48:48;;;;;;;3.17;1.70;;;;;;;;;;5077723;28;20309;-77
2023/12/24 05:51:15;;;;;;;1.70;1.33;;;;;;;;;;5062990;28;20239;-77
2023/12/24 05:53:41;;;;;;;2.77;1.83;;;;;;;;;;5077234;28;20189;-77
2023/12/24 05:56:07;;;;;;;1.43;1.23;;;;;;;;;;5075064;28;20596;-78
2023/12/24 05:58:33;;;;;;;2.07;1.40;;;;;;;;;;5078786;28;20296;-78
2023/12/24 06:00:59;;;;;;;3.20;1.93;;;;;;;;;;5072511;28;20209;-78
2023/12/24 06:03:25;;;;;;;3.33;1.90;;;;;;;;;;5082711;28;20218;-78
2023/12/24 06:05:51;;;;;;;2.17;1.97;;;;;;;;;;5081456;28;20586;-78
2023/12/24 06:08:17;;;;;;;2.33;1.60;;;;;;;;;;5075413;28;20194;-78
2023/12/24 06:10:44;;;;;;;2.60;1.90;;;;;;;;;;5080976;28;20600;-78
2023/12/24 06:13:10;;;;;;;3.10;2.10;;;;;;;;;;5077545;28;20297;-78
2023/12/24 06:15:36;;;;;;;2.17;1.80;;;;;;;;;;5068392;28;20226;-78
2023/12/24 06:18:02;;;;;;;3.13;2.00;;;;;;;;;;5072888;28;20218;-78
2023/12/24 06:20:29;;;;;;;3.60;2.30;;;;;;;;;;5080703;28;20183;-78
2023/12/24 06:22:56;;;;;;;3.33;2.13;;;;;;;;;;5079422;28;20182;-78
2023/12/24 06:25:22;;;;;;;3.30;2.10;;;;;;;;;;5085242;28;20210;-78
2023/12/24 06:27:48;;;;;;;2.17;1.90;;;;;;;;;;5075672;28;20215;-78
2023/12/24 06:30:14;;;;;;;2.60;1.90;;;;;;;;;;5074875;28;20210;-77
2023/12/24 06:32:44;;;;;;;3.43;1.80;;;;;;;;;;5076746;28;20230;-78
2023/12/24 06:35:10;;;;;;;2.17;1.50;;;;;;;;;;5072915;28;20203;-77
2023/12/24 06:37:36;;;;;;;2.27;1.40;;;;;;;;;;5082422;28;20211;-78
2023/12/24 06:40:03;;;;;;;1.57;1.00;;;;;;;;;;5080733;28;20212;-79
2023/12/24 06:42:29;;;;;;;1.30;0.90;;;;;;;;;;5079871;28;20290;-79
2023/12/24 06:44:55;;;;;;;0.93;0.60;;;;;;;;;;5083511;28;20293;-79
2023/12/24 06:47:21;;;;;;;1.00;0.77;;;;;;;;;;5079965;28;20202;-79
2023/12/24 06:49:47;;;;;;;1.60;0.87;;;;;;;;;;5082184;28;20211;-78
2023/12/24 06:52:14;;;;;;;1.40;0.97;;;;;;;;;;5081946;28;20207;-78
2023/12/24 06:54:40;;;;;;;1.90;0.70;;;;;;;;;;5072481;28;20242;-78
2023/12/24 06:57:07;;;;;;;1.40;0.80;;;;;;;;;;5082233;28;20289;-78
2023/12/24 06:59:33;;;;;;;1.93;1.00;;;;;;;;;;5077862;28;20190;-80
2023/12/24 07:01:59;;;;;;;2.23;0.97;;;;;;;;;;5083498;28;20179;-79
2023/12/24 07:04:25;;;;;;;2.07;0.80;;;;;;;;;;5086022;28;20650;-79
2023/12/24 07:06:51;;;;;;;0.70;0.70;;;;;;;;;;5083317;28;20217;-79
2023/12/24 07:09:18;;;;;;;1.00;0.80;;;;;;;;;;5085141;28;20256;-80
2023/12/24 07:11:44;;;;;;;1.27;0.87;;;;;;;;;;5082716;28;20175;-79
2023/12/24 07:14:10;;;;;;;1.27;0.90;;;;;;;;;;5078267;28;20221;-78
2023/12/24 07:16:36;;;;;;;1.70;1.03;;;;;;;;;;5085455;28;20275;-79
2023/12/24 07:19:05;;;;;;;1.63;1.10;;;;;;;;;;5088593;28;20408;-78
2023/12/24 07:21:31;;;;;;;1.20;1.03;;;;;;;;;;5089182;28;20210;-79
2023/12/24 07:23:57;;;;;;;2.30;1.13;;;;;;;;;;5084312;28;20965;-78
2023/12/24 07:26:23;;;;;;;1.80;1.20;;;;;;;;;;5083892;28;20179;-79
2023/12/24 07:28:49;;;;;;;1.90;1.37;;;;;;;;;;5081257;28;20210;-78
2023/12/24 07:31:15;;;;;;;1.77;1.37;;;;;;;;;;5081113;28;21815;-79
2023/12/24 07:33:42;;;;;;;2.13;1.30;;;;;;;;;;5082499;28;20210;-78
2023/12/24 07:36:08;;;;;;;2.77;1.60;;;;;;;;;;5082683;28;20661;-78
2023/12/24 07:38:34;;;;;;;2.00;1.50;;;;;;;;;;5081091;28;20211;-79
2023/12/24 07:41:00;;;;;;;2.37;1.57;;;;;;;;;;5073848;28;20702;-78
2023/12/24 07:43:27;;;;;;;1.90;1.50;;;;;;;;;;5086116;28;21004;-78
2023/12/24 07:45:53;;;;;;;2.43;1.43;;;;;;;;;;5085109;28;20257;-79
2023/12/24 07:48:19;;;;;;;1.53;1.43;;;;;;;;;;5086022;28;20272;-79
2023/12/24 07:50:45;;;;;;;1.97;1.60;;;;;;;;;;5087622;28;20200;-81
2023/12/24 07:53:11;;;;;;;1.97;1.50;;;;;;;;;;5088023;28;20181;-79
2023/12/24 07:55:38;;;;;;;2.00;1.60;;;;;;;;;;5088792;28;20772;-79
2023/12/24 07:58:04;;;;;;;2.60;1.87;;;;;;;;;;5084828;28;20214;-79
2023/12/24 08:00:30;;;;;;;2.40;1.87;;;;;;;;;;5083502;28;20241;-80
2023/12/24 08:02:56;;;;;;;2.90;1.87;;;;;;;;;;5087167;28;20301;-79
2023/12/24 08:05:22;;;;;;;4.67;2.30;;;;;;;;;;5088142;28;20210;-79
2023/12/24 08:07:48;;;;;;;2.90;1.93;;;;;;;;;;5084003;28;20218;-79
2023/12/24 08:10:14;;;;;;;2.67;1.97;;;;;;;;;;5083623;28;20285;-79
2023/12/24 08:12:40;;;;;;;2.50;2.10;;;;;;;;;;5068459;28;20239;-79
2023/12/24 08:15:06;;;;;;;3.80;2.83;;;;;;;;;;5066252;28;20229;-79
2023/12/24 08:17:32;;;;;;;2.97;2.10;;;;;;;;;;5085981;28;20237;-79
2023/12/24 08:19:58;;;;;;;3.63;2.60;;;;;;;;;;5086143;28;20183;-79
2023/12/24 08:22:25;;;;;;;3.10;2.20;;;;;;;;;;5085126;28;20721;-79
2023/12/24 08:24:51;;;;;;;4.87;2.63;;;;;;;;;;5081767;28;20217;-79
2023/12/24 08:27:17;;;;;;;4.47;2.67;;;;;;;;;;5087881;28;20233;-79
2023/12/24 08:29:43;;;;;;;4.13;2.50;;;;;;;;;;5084024;28;20641;-79
2023/12/24 08:32:09;;;;;;;4.10;2.57;;;;;;;;;;5082326;28;20236;-79
2023/12/24 08:34:35;;;;;;;4.83;3.10;;;;;;;;;;5083826;28;20222;-79
2023/12/24 08:37:01;;;;;;;5.00;2.80;;;;;;;;;;5085480;28;20232;-76
2023/12/24 08:39:27;;;;;;;4.30;2.50;;;;;;;;;;5085659;28;20203;-80
2023/12/24 08:41:53;;;;;;;5.37;3.00;;;;;;;;;;5087852;28;20222;-80
2023/12/24 08:44:19;;;;;;;4.83;2.90;;;;;;;;;;5084064;28;20657;-79
2023/12/24 08:46:48;;;;;;;5.03;3.03;;;;;;;;;;5069468;28;20240;-78
2023/12/24 08:49:15;;;;;;;4.50;2.90;;;;;;;;;;5080722;28;20681;-79
2023/12/24 08:51:42;;;;;;;4.83;3.43;;;;;;;;;;5081843;28;20220;-79
2023/12/24 08:54:08;;;;;;;3.93;2.60;;;;;;;;;;5085299;28;20207;-76
2023/12/24 08:56:34;;;;;;;4.57;2.90;;;;;;;;;;5084799;28;20605;-79
2023/12/24 08:59:00;;;;;;;3.23;2.20;;;;;;;;;;5087071;28;20707;-79
2023/12/24 09:01:26;;;;;;;3.57;2.40;;;;;;;;;;5086395;28;20195;-79
2023/12/24 09:03:52;;;;;;;5.13;2.67;;;;;;;;;;5086041;28;20209;-79
2023/12/24 09:06:18;;;;;;;6.23;3.57;;;;;;;;;;5066090;28;20298;-79
2023/12/24 09:08:44;;;;;;;3.57;2.30;;;;;;;;;;5087603;28;20195;-79
2023/12/24 09:11:12;;;;;;;3.13;2.13;;;;;;;;;;5083891;28;20221;-79
2023/12/24 09:13:38;;;;;;;4.60;2.40;;;;;;;;;;5080656;28;20214;-79
2023/12/24 09:16:05;;;;;;;2.83;1.97;;;;;;;;;;5086373;28;20221;-79
2023/12/24 09:18:31;;;;;;;5.37;2.00;;;;;;;;;;5081622;28;20210;-79
2023/12/24 09:20:57;;;;;;;3.03;2.23;;;;;;;;;;5088439;28;20239;-79
2023/12/24 09:23:23;;;;;;;2.30;1.80;;;;;;;;;;5085781;28;20267;-80
2023/12/24 09:25:49;;;;;;;2.40;1.67;;;;;;;;;;5084572;28;20302;-79
2023/12/24 09:28:15;;;;;;;1.83;1.73;;;;;;;;;;5086438;28;20268;-79
2023/12/24 09:30:41;;;;;;;3.93;2.23;;;;;;;;;;5080139;28;20203;-80
2023/12/24 09:33:07;;;;;;;1.73;1.40;;;;;;;;;;5097139;28;20786;-76
2023/12/24 09:35:33;;;;;;;3.03;1.67;;;;;;;;;;5093327;28;20195;-80
2023/12/24 09:37:59;;;;;;;1.87;1.37;;;;;;;;;;5099718;28;20241;-80
2023/12/24 09:40:26;;;;;;;1.47;1.27;;;;;;;;;;5102964;28;20202;-80
2023/12/24 09:42:52;;;;;;;1.47;1.27;;;;;;;;;;5098776;28;20198;-80
2023/12/24 09:45:19;;;;;;;1.13;0.90;;;;;;;;;;5098767;28;20207;-80
2023/12/24 09:47:45;;;;;;;1.33;1.20;;;;;;;;;;5100253;28;20227;-80
2023/12/24 09:50:12;;;;;;;3.70;2.10;;;;;;;;;;5092868;28;20171;-79
2023/12/24 09:52:38;;;;;;;2.27;1.30;;;;;;;;;;5089298;28;20265;-80
2023/12/24 09:55:04;;;;;;;0.97;0.77;;;;;;;;;;5089265;28;20363;-80
2023/12/24 09:57:30;;;;;;;0.83;0.77;;;;;;;;;;5094392;28;20203;-80
2023/12/24 09:59:56;;;;;;;0.80;0.63;;;;;;;;;;5095446;28;20217;-79
2023/12/24 10:02:22;;;;;;;2.47;0.70;;;;;;;;;;5089928;28;20170;-79
2023/12/24 10:04:48;;;;;;;2.43;0.80;;;;;;;;;;5084098;28;20207;-79
2023/12/24 10:07:14;;;;;;;1.80;0.80;;;;;;;;;;5081555;28;20207;-79
2023/12/24 10:09:43;;;;;;;1.10;0.70;;;;;;;;;;5065302;28;20210;-79
2023/12/24 10:12:09;;;;;;;1.73;0.70;;;;;;;;;;5068076;28;20679;-79
2023/12/24 10:14:36;;;;;;;1.30;0.70;;;;;;;;;;5082645;28;20728;-79
2023/12/24 10:17:03;;;;;;;0.77;0.60;;;;;;;;;;5076659;28;20179;-80
2023/12/24 10:19:29;;;;;;;1.17;0.70;;;;;;;;;;5083803;28;20209;-80
2023/12/24 10:22:01;;;;;;;1.23;0.80;;;;;;;;;;5088757;28;20262;-80
2023/12/24 10:24:31;;;;;;;1.07;0.80;;;;;;;;;;5083929;28;20229;-80
2023/12/24 10:27:04;;;;;;;0.57;0.50;;;;;;;;;;5085252;28;20210;-79
2023/12/24 10:29:30;;;;;;;0.87;0.70;;;;;;;;;;5076920;28;20197;-79
2023/12/24 10:31:57;;;;;;;0.50;0.40;;;;;;;;;;5076302;28;20175;-79
2023/12/24 10:34:24;;;;;;;0.20;0.20;;;;;;;;;;5068015;28;20211;-80
2023/12/24 10:36:50;;;;;;;2.23;1.07;;;;;;;;;;5080663;28;20783;-79
2023/12/24 10:39:24;;;;;;;0.70;0.57;;;;;;;;;;5084513;28;20249;-79
2023/12/24 10:41:51;;;;;;;0.80;0.60;;;;;;;;;;5085058;28;20234;-80
2023/12/24 10:44:17;;;;;;;0.70;0.50;;;;;;;;;;5085032;28;20186;-79
2023/12/24 10:46:43;;;;;;;2.57;1.17;;;;;;;;;;5085051;28;20415;-80
2023/12/24 10:49:09;;;;;;;0.57;0.40;;;;;;;;;;5087768;28;20202;-80
2023/12/24 10:51:35;;;;;;;0.40;0.40;;;;;;;;;;5084297;28;20222;-80
2023/12/24 10:54:02;;;;;;;1.50;1.13;;;;;;;;;;5086267;28;20218;-80
2023/12/24 10:56:31;;;;;;;0.40;0.30;;;;;;;;;;5082895;28;20702;-79
2023/12/24 10:59:18;;;;;;;2.03;1.00;;;;;;;;;;5082242;28;20202;-80
2023/12/24 11:01:47;;;;;;;2.30;1.07;;;;;;;;;;5084467;28;20199;-79
2023/12/24 11:04:33;;;;;;;1.53;0.60;;;;;;;;;;5087661;28;20210;-79
2023/12/24 11:07:04;;;;;;;1.17;0.30;;;;;;;;;;5088388;28;20202;-79
2023/12/24 11:09:30;;;;;;;1.60;0.90;;;;;;;;;;5088033;28;20688;-79
2023/12/24 11:11:57;;;;;;;1.30;0.97;;;;;;;;;;5089668;28;20210;-79
2023/12/24 11:14:39;;;;;;;0.57;0.57;;;;;;;;;;5087731;28;20198;-80
2023/12/24 11:17:06;;;;;;;0.50;0.20;;;;;;;;;;5082655;28;20593;-77
2023/12/24 11:19:35;;;;;;;3.20;0.50;;;;;;;;;;5074336;28;20211;-80
2023/12/24 11:22:07;;;;;;;0.30;0.30;;;;;;;;;;5067056;28;20217;-79
2023/12/24 11:24:34;;;;;;;0.40;0.30;;;;;;;;;;5085455;28;20207;-79
2023/12/24 11:27:00;;;;;;;0.27;0.27;;;;;;;;;;5085550;28;20226;-79
2023/12/24 11:29:42;;;;;;;0.43;0.30;;;;;;;;;;5079517;28;20209;-80
2023/12/24 11:32:26;;;;;;;0.53;0.27;;;;;;;;;;5087431;28;20170;-80
2023/12/24 11:34:57;;;;;;;0.87;0.50;;;;;;;;;;5083896;28;20227;-79
2023/12/24 11:37:26;;;;;;;0.60;0.40;;;;;;;;;;5068284;28;20241;-79
2023/12/24 11:40:19;;;;;;;0.30;0.30;;;;;;;;;;5084615;28;20218;-80
2023/12/24 11:42:46;;;;;;;0.63;0.33;;;;;;;;;;5078776;28;20203;-79
2023/12/24 11:45:29;;;;;;;0.40;0.40;;;;;;;;;;5087972;28;20372;-79
2023/12/24 11:47:55;;;;;;;0.30;0.30;;;;;;;;;;5083472;28;20236;-80
2023/12/24 11:50:22;;;;;;;0.50;0.40;;;;;;;;;;5086378;28;20170;-79
2023/12/24 11:52:49;;;;;;;0.47;0.40;;;;;;;;;;5075878;28;20213;-79
2023/12/24 11:55:18;;;;;;;0.67;0.50;;;;;;;;;;5081689;28;20233;-79
2023/12/24 11:57:45;;;;;;;0.90;0.70;;;;;;;;;;5075332;28;20206;-79
2023/12/24 12:00:16;;;;;;;0.87;0.50;;;;;;;;;;5063656;28;20207;-79
2023/12/24 12:02:42;;;;;;;0.93;0.40;;;;;;;;;;5080427;28;20172;-80
2023/12/24 12:05:09;;;;;;;2.10;0.60;;;;;;;;;;5082846;28;20183;-79
2023/12/24 12:07:36;;;;;;;1.27;0.60;;;;;;;;;;5079361;28;20215;-78
2023/12/24 12:10:02;;;;;;;0.53;0.40;;;;;;;;;;5083048;28;20207;-78
2023/12/24 12:12:28;;;;;;;0.40;0.40;;;;;;;;;;5082778;28;20263;-78
2023/12/24 12:14:54;;;;;;;0.27;0.27;;;;;;;;;;5080419;28;20725;-78
2023/12/24 12:17:20;;;;;;;0.40;0.40;;;;;;;;;;5076782;28;20206;-78
2023/12/24 12:19:46;;;;;;;0.60;0.60;;;;;;;;;;5082571;28;20233;-79
2023/12/24 12:22:12;;;;;;;0.53;0.50;;;;;;;;;;5088802;28;20210;-79
2023/12/24 12:24:38;;;;;;;0.73;0.53;;;;;;;;;;5081285;28;20222;-79
2023/12/24 12:27:05;;;;;;;2.30;0.70;;;;;;;;;;5087854;28;20272;-79
2023/12/24 12:29:32;;;;;;;0.57;0.40;;;;;;;;;;5058551;28;20179;-79
2023/12/24 12:31:58;;;;;;;0.50;0.40;;;;;;;;;;5081784;28;20179;-79
2023/12/24 12:34:24;;;;;;;0.63;0.50;;;;;;;;;;5087543;28;20194;-78
2023/12/24 12:36:50;;;;;;;1.67;0.50;;;;;;;;;;5080304;28;20203;-77
2023/12/24 12:39:16;;;;;;;0.40;0.40;;;;;;;;;;5070739;28;20203;-78
2023/12/24 12:41:42;;;;;;;1.30;0.63;;;;;;;;;;5079124;28;20381;-77
2023/12/24 12:44:08;;;;;;;0.57;0.50;;;;;;;;;;5085719;28;20745;-77
2023/12/24 12:46:35;;;;;;;0.50;0.50;;;;;;;;;;5080598;28;20207;-78
2023/12/24 12:49:01;;;;;;;0.53;0.50;;;;;;;;;;5088011;28;20246;-78
2023/12/24 12:51:27;;;;;;;0.53;0.40;;;;;;;;;;5083603;28;20214;-77
2023/12/24 12:53:53;;;;;;;0.50;0.40;;;;;;;;;;5080642;28;20229;-78
2023/12/24 12:56:19;;;;;;;0.60;0.43;;;;;;;;;;5088668;28;20817;-78
2023/12/24 12:58:53;;;;;;;1.00;0.70;;;;;;;;;;5082919;28;20214;-78
2023/12/24 13:01:23;;;;;;;0.33;0.30;;;;;;;;;;5077144;28;20203;-78
2023/12/24 13:03:58;;;;;;;0.67;0.40;;;;;;;;;;5068518;28;20631;-78
2023/12/24 13:06:24;;;;;;;0.83;0.53;;;;;;;;;;5073656;28;20206;-78
2023/12/24 13:08:50;;;;;;;1.57;0.80;;;;;;;;;;5083829;28;20245;-78
2023/12/24 13:11:20;;;;;;;0.67;0.60;;;;;;;;;;5086619;28;20178;-78
2023/12/24 13:13:46;;;;;;;0.97;0.67;;;;;;;;;;5084755;28;20207;-79
2023/12/24 13:16:12;;;;;;;0.43;0.43;;;;;;;;;;5083576;28;20737;-79
2023/12/24 13:18:39;;;;;;;0.83;0.67;;;;;;;;;;5083095;28;20215;-80
2023/12/24 13:21:07;;;;;;;1.83;1.00;;;;;;;;;;5087797;28;20221;-80
2023/12/24 13:23:34;;;;;;;0.60;0.60;;;;;;;;;;5089679;28;20284;-80
2023/12/24 13:26:03;;;;;;;0.57;0.57;;;;;;;;;;5089565;28;20239;-80
2023/12/24 13:28:29;;;;;;;0.60;0.60;;;;;;;;;;5088754;28;20241;-77
2023/12/24 13:30:55;;;;;;;1.60;0.60;;;;;;;;;;5088902;28;20195;-79
2023/12/24 13:33:21;;;;;;;1.20;0.87;;;;;;;;;;5072256;28;20204;-80
2023/12/24 13:35:48;;;;;;;1.20;0.70;;;;;;;;;;5100230;28;20631;-79
2023/12/24 13:38:17;;;;;;;1.23;1.10;;;;;;;;;;5095614;28;21186;-79
2023/12/24 13:40:43;;;;;;;0.70;0.57;;;;;;;;;;5095668;28;20210;-79
2023/12/24 13:43:10;;;;;;;1.07;0.70;;;;;;;;;;5100269;28;20215;-79
2023/12/24 13:45:36;;;;;;;2.07;1.10;;;;;;;;;;5092497;28;20721;-78
2023/12/24 13:48:02;;;;;;;1.10;0.70;;;;;;;;;;5096787;28;20206;-78
2023/12/24 13:50:29;;;;;;;1.63;0.80;;;;;;;;;;5090569;28;20235;-79
2023/12/24 13:52:55;;;;;;;2.17;0.70;;;;;;;;;;5090112;28;20175;-79
2023/12/24 13:55:22;;;;;;;3.50;1.10;;;;;;;;;;5095108;28;20231;-79
2023/12/24 13:57:49;;;;;;;2.30;1.17;;;;;;;;;;5092434;28;20250;-78
2023/12/24 14:00:15;;;;;;;2.03;0.77;;;;;;;;;;5080696;28;20620;-79
2023/12/24 14:02:41;;;;;;;1.43;0.90;;;;;;;;;;5070239;28;20206;-79
2023/12/24 14:05:08;;;;;;;0.60;0.60;;;;;;;;;;5086975;28;20201;-78
2023/12/24 14:07:34;;;;;;;1.00;0.93;;;;;;;;;;5085320;28;20224;-78
2023/12/24 14:10:00;;;;;;;1.87;0.80;;;;;;;;;;5084478;28;20207;-78
2023/12/24 14:12:27;;;;;;;0.90;0.80;;;;;;;;;;5087200;28;20698;-78
2023/12/24 14:14:53;;;;;;;0.90;0.70;;;;;;;;;;5085437;28;20221;-79
2023/12/24 14:17:19;;;;;;;2.70;0.97;;;;;;;;;;5085359;28;20275;-79
2023/12/24 14:19:45;;;;;;;1.67;0.97;;;;;;;;;;5085179;28;20215;-79
2023/12/24 14:22:12;;;;;;;1.53;0.93;;;;;;;;;;5087776;28;20202;-78
2023/12/24 14:24:38;;;;;;;1.67;1.07;;;;;;;;;;5076382;28;20203;-79
2023/12/24 14:27:05;;;;;;;1.63;0.80;;;;;;;;;;5076241;28;20208;-78
2023/12/24 14:29:30;;;;;;;1.33;1.00;;;;;;;;;;5075176;28;20243;-79
2023/12/24 14:31:57;;;;;;;0.87;0.87;;;;;;;;;;5072527;28;20244;-79
2023/12/24 14:34:23;;;;;;;0.93;0.80;;;;;;;;;;5083727;28;20238;-78
2023/12/24 14:36:49;;;;;;;1.67;1.20;;;;;;;;;;5083845;28;20214;-78
2023/12/24 14:39:15;;;;;;;0.83;0.60;;;;;;;;;;5082699;28;20214;-78
2023/12/24 14:41:41;;;;;;;0.70;0.70;;;;;;;;;;5084677;28;20206;-78